createdAt,value
2022-09-30T00:01:48.263Z,96010.84
2022-09-30T00:04:21.441Z,96015.13
2022-09-30T00:06:51.889Z,96018.19
2022-09-30T00:09:21.787Z,96019.31
2022-09-30T00:11:50.880Z,96018.69
2022-09-30T00:14:22.820Z,96012.34
2022-09-30T00:16:51.413Z,96018.88
2022-09-30T00:19:21.141Z,96017.81
2022-09-30T00:21:49.582Z,96018.75
2022-09-30T00:24:18.360Z,96016.38
2022-09-30T00:26:46.847Z,96022.47
2022-09-30T00:29:15.508Z,96026.94
2022-09-30T00:31:44.185Z,96027.09
2022-09-30T00:34:12.574Z,96033.97
2022-09-30T00:36:45.993Z,96042.44
2022-09-30T00:39:18.447Z,96042.28
2022-09-30T00:41:49.970Z,96043.41
2022-09-30T00:44:54.405Z,96051.38
2022-09-30T00:47:47.208Z,96058.56
2022-09-30T00:50:26.374Z,96061.59
2022-09-30T00:53:05.025Z,96066.22
2022-09-30T00:55:45.911Z,96067.34
2022-09-30T00:58:22.467Z,96071.19
2022-09-30T01:00:52.902Z,96066.22
2022-09-30T01:03:23.598Z,96060.16
2022-09-30T01:05:53.751Z,96060.63
2022-09-30T01:08:25.974Z,96057.91
2022-09-30T01:10:54.475Z,96069.91
2022-09-30T01:13:27.401Z,96063.97
2022-09-30T01:16:27.388Z,96064.31
2022-09-30T01:19:17.073Z,96063.19
2022-09-30T01:22:18.908Z,96072.28
2022-09-30T01:25:45.368Z,96074.53
2022-09-30T01:28:54.805Z,96077.88
2022-09-30T01:31:48.960Z,96089.38
2022-09-30T01:34:31.991Z,96084.59
2022-09-30T01:37:14.903Z,96085.06
2022-09-30T01:39:56.420Z,96084.91
2022-09-30T01:42:37.882Z,96080.59
2022-09-30T01:45:16.923Z,96078.19
2022-09-30T01:47:57.506Z,96074.84
2022-09-30T01:50:42.442Z,96076.31
2022-09-30T01:53:25.452Z,96079.34
2022-09-30T01:56:02.818Z,96086.38
2022-09-30T01:58:42.007Z,96087.97
2022-09-30T02:01:20.742Z,96089.09
2022-09-30T02:03:55.811Z,96091.81
2022-09-30T02:06:31.019Z,96100.91
2022-09-30T02:09:07.011Z,96102.03
2022-09-30T02:11:38.935Z,96102.66
2022-09-30T02:14:15.767Z,96114.00
2022-09-30T02:16:49.632Z,96108.09
2022-09-30T02:19:28.227Z,96110.63
2022-09-30T02:22:04.963Z,96107.44
2022-09-30T02:24:37.693Z,96113.34
2022-09-30T02:27:12.503Z,96108.56
2022-09-30T02:29:49.729Z,96111.94
2022-09-30T02:32:25.586Z,96103.59
2022-09-30T02:35:02.207Z,96110.16
2022-09-30T02:37:37.533Z,96108.88
2022-09-30T02:40:12.946Z,96107.78
2022-09-30T02:42:45.626Z,96109.66
2022-09-30T02:45:19.761Z,96105.81
2022-09-30T02:48:12.765Z,96102.00
2022-09-30T02:50:53.094Z,96098.63
2022-09-30T02:53:28.752Z,96092.09
2022-09-30T02:56:18.608Z,96104.81
2022-09-30T02:58:48.507Z,96094.75
2022-09-30T03:01:18.835Z,96102.72
2022-09-30T03:03:52.699Z,96107.75
2022-09-30T03:06:22.938Z,96106.25
2022-09-30T03:08:54.887Z,96105.41
2022-09-30T03:11:26.932Z,96109.06
2022-09-30T03:14:28.232Z,96109.75
2022-09-30T03:17:26.573Z,96112.44
2022-09-30T03:20:32.250Z,96117.19
2022-09-30T03:23:40.826Z,96117.31
2022-09-30T03:26:25.367Z,96125.84
2022-09-30T03:29:10.002Z,96119.84
2022-09-30T03:31:53.742Z,96129.09
2022-09-30T03:34:33.141Z,96145.91
2022-09-30T03:37:13.267Z,96148.13
2022-09-30T03:39:58.321Z,96151.50
2022-09-30T03:42:36.348Z,96164.31
2022-09-30T03:45:13.078Z,96154.09
2022-09-30T03:47:47.861Z,96148.94
2022-09-30T03:50:20.717Z,96162.75
2022-09-30T03:52:51.107Z,96164.41
2022-09-30T03:55:22.543Z,96167.56
2022-09-30T03:57:51.305Z,96165.94
2022-09-30T04:00:20.222Z,96163.84
2022-09-30T04:02:48.471Z,96163.34
2022-09-30T04:05:17.166Z,96158.41
2022-09-30T04:07:46.924Z,96171.22
2022-09-30T04:10:15.588Z,96170.31
2022-09-30T04:12:45.229Z,96162.34
2022-09-30T04:15:13.675Z,96161.13
2022-09-30T04:17:41.904Z,96168.19
2022-09-30T04:20:10.789Z,96169.72
2022-09-30T04:22:39.073Z,96165.78
2022-09-30T04:25:09.098Z,96169.66
2022-09-30T04:27:37.536Z,96174.78
2022-09-30T04:30:08.444Z,96166.94
2022-09-30T04:32:36.898Z,96168.50
2022-09-30T04:35:06.096Z,96172.84
2022-09-30T04:37:34.355Z,96173.84
2022-09-30T04:40:03.230Z,96178.28
2022-09-30T04:42:31.853Z,96179.84
2022-09-30T04:45:00.186Z,96176.00
2022-09-30T04:47:30.290Z,96187.28
2022-09-30T04:49:58.611Z,96180.88
2022-09-30T04:52:27.021Z,96184.91
2022-09-30T04:54:55.364Z,96187.22
2022-09-30T04:57:23.613Z,96189.56
2022-09-30T04:59:52.053Z,96191.81
2022-09-30T05:02:20.441Z,96203.88
2022-09-30T05:04:50.231Z,96205.53
2022-09-30T05:07:18.593Z,96218.28
2022-09-30T05:09:47.268Z,96212.16
2022-09-30T05:12:15.706Z,96216.91
2022-09-30T05:14:43.997Z,96217.66
2022-09-30T05:17:12.246Z,96220.09
2022-09-30T05:19:40.524Z,96220.19
2022-09-30T05:22:10.282Z,96222.91
2022-09-30T05:24:38.511Z,96220.19
2022-09-30T05:27:07.603Z,96219.72
2022-09-30T05:29:35.941Z,96222.50
2022-09-30T05:32:04.233Z,96223.56
2022-09-30T05:34:32.872Z,96234.28
2022-09-30T05:37:01.185Z,96238.72
2022-09-30T05:39:30.904Z,96241.59
2022-09-30T05:42:00.348Z,96251.97
2022-09-30T05:44:28.770Z,96253.44
2022-09-30T05:46:57.937Z,96255.22
2022-09-30T05:49:27.375Z,96246.81
2022-09-30T05:51:55.877Z,96245.03
2022-09-30T05:54:24.136Z,96254.84
2022-09-30T05:56:53.831Z,96253.59
2022-09-30T05:59:22.132Z,96249.97
2022-09-30T06:01:50.501Z,96266.31
2022-09-30T06:04:19.043Z,96267.78
2022-09-30T06:06:47.772Z,96278.13
2022-09-30T06:09:16.169Z,96283.81
2022-09-30T06:11:44.814Z,96289.59
2022-09-30T06:14:14.715Z,96291.22
2022-09-30T06:16:43.099Z,96294.09
2022-09-30T06:19:11.517Z,96298.59
2022-09-30T06:21:40.051Z,96291.59
2022-09-30T06:24:12.998Z,96305.81
2022-09-30T06:26:42.476Z,96307.88
2022-09-30T06:29:10.907Z,96308.44
2022-09-30T06:31:40.715Z,96304.59
2022-09-30T06:34:10.363Z,96316.91
2022-09-30T06:36:38.716Z,96309.88
2022-09-30T06:39:10.319Z,96316.75
2022-09-30T06:41:44.124Z,96311.91
2022-09-30T06:44:18.378Z,96319.75
2022-09-30T06:46:53.542Z,96317.41
2022-09-30T06:49:22.781Z,96327.78
2022-09-30T06:51:52.203Z,96326.88
2022-09-30T06:54:21.872Z,96330.13
2022-09-30T06:56:53.403Z,96335.59
2022-09-30T06:59:21.667Z,96328.66
2022-09-30T07:01:51.551Z,96322.63
2022-09-30T07:04:20.296Z,96332.44
2022-09-30T07:06:48.664Z,96331.78
2022-09-30T07:09:17.906Z,96333.69
2022-09-30T07:11:46.174Z,96337.00
2022-09-30T07:14:14.479Z,96333.56
2022-09-30T07:16:44.711Z,96337.91
2022-09-30T07:19:14.787Z,96344.78
2022-09-30T07:21:43.107Z,96350.69
2022-09-30T07:24:11.650Z,96355.59
2022-09-30T07:26:40.699Z,96360.84
2022-09-30T07:29:08.990Z,96360.63
2022-09-30T07:31:37.389Z,96358.56
2022-09-30T07:34:08.058Z,96357.31
2022-09-30T07:36:40.220Z,96363.84
2022-09-30T07:39:11.192Z,96369.25
2022-09-30T07:41:41.634Z,96367.94
2022-09-30T07:44:14.720Z,96376.25
2022-09-30T07:46:45.000Z,96368.81
2022-09-30T07:49:24.794Z,96374.09
2022-09-30T07:51:58.487Z,96374.03
2022-09-30T07:54:30.842Z,96382.72
2022-09-30T07:57:16.479Z,96383.09
2022-09-30T07:59:44.836Z,96385.19
2022-09-30T08:02:18.396Z,96385.44
2022-09-30T08:04:47.730Z,96384.00
2022-09-30T08:07:19.558Z,96390.66
2022-09-30T08:09:47.959Z,96397.81
2022-09-30T08:12:16.329Z,96398.41
2022-09-30T08:14:45.549Z,96391.28
2022-09-30T08:17:14.056Z,96396.69
2022-09-30T08:19:44.648Z,96397.69
2022-09-30T08:22:14.122Z,96398.63
2022-09-30T08:24:43.898Z,96395.88
2022-09-30T08:27:12.220Z,96398.81
2022-09-30T08:29:58.360Z,96403.06
2022-09-30T08:32:32.234Z,96405.75
2022-09-30T08:35:00.477Z,96409.03
2022-09-30T08:37:28.783Z,96414.53
2022-09-30T08:39:58.768Z,96417.59
2022-09-30T08:42:52.899Z,96422.31
2022-09-30T08:45:37.544Z,96419.78
2022-09-30T08:48:29.540Z,96418.53
2022-09-30T08:51:15.444Z,96409.56
2022-09-30T08:53:47.832Z,96404.56
2022-09-30T08:56:26.233Z,96415.69
2022-09-30T08:59:03.272Z,96411.00
2022-09-30T09:01:35.717Z,96410.25
2022-09-30T09:04:07.679Z,96404.94
2022-09-30T09:06:50.403Z,96406.63
2022-09-30T09:09:43.126Z,96409.00
2022-09-30T09:12:34.460Z,96401.44
2022-09-30T09:15:50.280Z,96408.22
2022-09-30T09:18:52.278Z,96415.75
2022-09-30T09:21:28.592Z,96417.34
2022-09-30T09:24:03.103Z,96416.13
2022-09-30T09:26:37.714Z,96425.63
2022-09-30T09:29:37.539Z,96433.53
2022-09-30T09:32:14.827Z,96436.97
2022-09-30T09:34:43.237Z,96443.88
2022-09-30T09:37:43.641Z,96432.72
2022-09-30T09:40:20.114Z,96431.56
2022-09-30T09:43:06.424Z,96439.09
2022-09-30T09:45:48.947Z,96435.13
2022-09-30T09:48:17.528Z,96439.88
2022-09-30T09:51:01.315Z,96438.28
2022-09-30T09:53:45.702Z,96438.97
2022-09-30T09:56:21.663Z,96442.88
2022-09-30T09:59:09.407Z,96431.19
2022-09-30T10:01:43.193Z,96436.50
2022-09-30T10:04:21.961Z,96432.50
2022-09-30T10:06:55.227Z,96438.09
2022-09-30T10:09:30.844Z,96446.53
2022-09-30T10:12:29.531Z,96451.50
2022-09-30T10:15:03.616Z,96447.72
2022-09-30T10:17:36.589Z,96452.16
2022-09-30T10:20:18.090Z,96457.81
2022-09-30T10:22:46.508Z,96459.25
2022-09-30T10:25:26.286Z,96468.16
2022-09-30T10:28:00.427Z,96461.44
2022-09-30T10:30:38.951Z,96459.56
2022-09-30T10:33:27.135Z,96460.72
2022-09-30T10:36:04.256Z,96465.28
2022-09-30T10:38:34.996Z,96472.78
2022-09-30T10:41:06.325Z,96470.25
2022-09-30T10:43:50.490Z,96467.56
2022-09-30T10:46:27.437Z,96472.38
2022-09-30T10:49:00.400Z,96482.50
2022-09-30T10:51:36.318Z,96486.19
2022-09-30T10:54:06.366Z,96481.75
2022-09-30T10:56:46.915Z,96484.25
2022-09-30T10:59:34.888Z,96490.72
2022-09-30T11:02:31.835Z,96491.78
2022-09-30T11:05:18.117Z,96490.81
2022-09-30T11:07:54.834Z,96489.81
2022-09-30T11:10:37.396Z,96485.41
2022-09-30T11:13:14.589Z,96489.81
2022-09-30T11:15:57.946Z,96482.69
2022-09-30T11:18:37.085Z,96480.16
2022-09-30T11:21:16.277Z,96483.72
2022-09-30T11:23:52.017Z,96483.72
2022-09-30T11:26:40.888Z,96491.34
2022-09-30T11:29:28.406Z,96480.59
2022-09-30T11:32:02.554Z,96476.13
2022-09-30T11:34:51.817Z,96478.50
2022-09-30T11:37:41.742Z,96472.59
2022-09-30T11:40:31.822Z,96472.56
2022-09-30T11:43:15.561Z,96470.84
2022-09-30T11:46:23.797Z,96473.97
2022-09-30T11:49:17.356Z,96473.88
2022-09-30T11:51:59.720Z,96474.03
2022-09-30T11:54:53.705Z,96474.66
2022-09-30T11:57:33.280Z,96469.19
2022-09-30T12:00:10.970Z,96477.16
2022-09-30T12:02:46.818Z,96474.78
2022-09-30T12:05:23.899Z,96478.31
2022-09-30T12:07:59.706Z,96486.66
2022-09-30T12:10:36.081Z,96482.63
2022-09-30T12:13:12.328Z,96489.38
2022-09-30T12:15:45.486Z,96492.19
2022-09-30T12:18:19.215Z,96488.25
2022-09-30T12:20:54.805Z,96489.00
2022-09-30T12:23:33.309Z,96492.94
2022-09-30T12:26:05.903Z,96489.84
2022-09-30T12:29:03.455Z,96492.03
2022-09-30T12:32:16.416Z,96498.06
2022-09-30T12:35:03.598Z,96488.22
2022-09-30T12:37:50.822Z,96484.97
2022-09-30T12:40:52.755Z,96478.34
2022-09-30T12:44:06.498Z,96476.25
2022-09-30T12:47:15.538Z,96465.19
2022-09-30T12:49:46.879Z,96468.03
2022-09-30T12:52:20.842Z,96470.47
2022-09-30T12:54:54.692Z,96460.03
2022-09-30T12:57:30.772Z,96454.28
2022-09-30T13:00:15.274Z,96460.59
2022-09-30T13:02:49.289Z,96468.59
2022-09-30T13:05:56.303Z,96468.44
2022-09-30T13:08:45.830Z,96461.38
2022-09-30T13:11:37.833Z,96459.44
2022-09-30T13:14:33.693Z,96467.59
2022-09-30T13:17:30.454Z,96470.34
2022-09-30T13:19:58.923Z,96470.78
2022-09-30T13:23:00.463Z,96461.69
2022-09-30T13:25:54.874Z,96470.78
2022-09-30T13:28:32.169Z,96475.56
2022-09-30T13:31:19.331Z,96471.53
2022-09-30T13:34:11.010Z,96469.69
2022-09-30T13:36:58.161Z,96478.59
2022-09-30T13:39:31.644Z,96482.44
2022-09-30T13:42:15.230Z,96487.94
2022-09-30T13:45:03.046Z,96491.13
2022-09-30T13:47:40.168Z,96488.94
2022-09-30T13:50:19.444Z,96481.66
2022-09-30T13:52:56.514Z,96489.69
2022-09-30T13:55:33.380Z,96489.47
2022-09-30T13:58:24.247Z,96490.22
2022-09-30T14:01:03.491Z,96486.06
2022-09-30T14:03:50.178Z,96490.59
2022-09-30T14:06:43.863Z,96483.31
2022-09-30T14:10:06.900Z,96488.50
2022-09-30T14:12:57.184Z,96484.22
2022-09-30T14:15:50.374Z,96483.06
2022-09-30T14:18:51.902Z,96488.91
2022-09-30T14:21:37.841Z,96488.13
2022-09-30T14:24:16.169Z,96477.19
2022-09-30T14:27:31.608Z,96477.53
2022-09-30T14:30:07.897Z,96479.72
2022-09-30T14:32:47.451Z,96476.16
2022-09-30T14:35:21.013Z,96474.69
2022-09-30T14:37:55.825Z,96488.72
2022-09-30T14:40:29.278Z,96486.94
2022-09-30T14:43:02.891Z,96493.34
2022-09-30T14:45:34.873Z,96492.84
2022-09-30T14:48:11.700Z,96493.78
2022-09-30T14:50:48.780Z,96497.09
2022-09-30T14:53:31.056Z,96504.41
2022-09-30T14:55:59.996Z,96491.31
2022-09-30T14:58:31.331Z,96492.19
2022-09-30T15:01:06.254Z,96494.28
2022-09-30T15:03:38.276Z,96495.75
2022-09-30T15:06:19.506Z,96492.78
2022-09-30T15:08:51.645Z,96501.09
2022-09-30T15:11:26.336Z,96496.34
2022-09-30T15:14:06.173Z,96508.00
2022-09-30T15:16:35.806Z,96511.13
2022-09-30T15:19:04.445Z,96507.53
2022-09-30T15:21:35.273Z,96513.00
2022-09-30T15:24:06.654Z,96508.13
2022-09-30T15:26:35.456Z,96507.06
2022-09-30T15:29:05.513Z,96510.56
2022-09-30T15:31:35.561Z,96512.75
2022-09-30T15:34:08.182Z,96515.69
2022-09-30T15:36:38.575Z,96520.91
2022-09-30T15:39:24.585Z,96534.88
2022-09-30T15:41:53.636Z,96531.75
2022-09-30T15:44:39.981Z,96533.66
2022-09-30T15:47:11.570Z,96539.06
2022-09-30T15:49:49.849Z,96548.03
2022-09-30T15:52:41.157Z,96544.50
2022-09-30T15:55:44.216Z,96542.50
2022-09-30T15:58:38.941Z,96542.09
2022-09-30T16:01:21.348Z,96528.31
2022-09-30T16:03:55.354Z,96541.09
2022-09-30T16:06:32.527Z,96547.84
2022-09-30T16:09:06.568Z,96538.63
2022-09-30T16:11:41.212Z,96535.59
2022-09-30T16:14:18.399Z,96545.34
2022-09-30T16:16:54.719Z,96543.91
2022-09-30T16:19:25.244Z,96553.53
2022-09-30T16:21:55.148Z,96551.63
2022-09-30T16:24:49.296Z,96547.31
2022-09-30T16:27:32.725Z,96540.19
2022-09-30T16:30:02.248Z,96541.31
2022-09-30T16:32:36.965Z,96541.22
2022-09-30T16:35:06.800Z,96545.34
2022-09-30T16:37:35.212Z,96549.81
2022-09-30T16:40:19.739Z,96547.19
2022-09-30T16:42:49.337Z,96555.19
2022-09-30T16:45:18.508Z,96549.03
2022-09-30T16:47:47.177Z,96558.72
2022-09-30T16:50:36.120Z,96558.84
2022-09-30T16:53:04.499Z,96555.66
2022-09-30T16:55:33.205Z,96559.41
2022-09-30T16:58:05.416Z,96548.91
2022-09-30T17:00:34.363Z,96557.03
2022-09-30T17:03:02.687Z,96554.78
2022-09-30T17:05:31.098Z,96555.94
2022-09-30T17:08:01.246Z,96560.91
2022-09-30T17:10:32.515Z,96559.69
2022-09-30T17:13:03.568Z,96562.38
2022-09-30T17:15:35.396Z,96559.03
2022-09-30T17:18:08.019Z,96559.09
2022-09-30T17:20:38.457Z,96569.91
2022-09-30T17:23:07.607Z,96569.59
2022-09-30T17:25:41.176Z,96574.03
2022-09-30T17:28:12.618Z,96576.69
2022-09-30T17:30:41.997Z,96584.56
2022-09-30T17:33:11.628Z,96584.63
2022-09-30T17:35:41.009Z,96588.66
2022-09-30T17:38:11.993Z,96588.50
2022-09-30T17:40:58.422Z,96587.69
2022-09-30T17:43:28.202Z,96595.53
2022-09-30T17:46:01.049Z,96590.81
2022-09-30T17:48:29.789Z,96596.91
2022-09-30T17:51:00.143Z,96611.00
2022-09-30T17:53:29.288Z,96604.53
2022-09-30T17:56:06.635Z,96610.16
2022-09-30T17:58:37.293Z,96606.91
2022-09-30T18:01:08.190Z,96611.03
2022-09-30T18:03:37.029Z,96612.44
2022-09-30T18:06:05.960Z,96609.38
2022-09-30T18:08:34.737Z,96611.00
2022-09-30T18:11:05.004Z,96614.97
2022-09-30T18:13:33.469Z,96613.53
2022-09-30T18:16:07.571Z,96618.47
2022-09-30T18:18:36.599Z,96623.94
2022-09-30T18:21:05.421Z,96618.28
2022-09-30T18:23:33.878Z,96612.22
2022-09-30T18:26:02.614Z,96619.13
2022-09-30T18:28:31.339Z,96623.34
2022-09-30T18:31:08.084Z,96617.56
2022-09-30T18:33:37.124Z,96616.06
2022-09-30T18:36:06.852Z,96608.34
2022-09-30T18:38:35.412Z,96606.75
2022-09-30T18:41:07.033Z,96613.81
2022-09-30T18:43:35.671Z,96609.69
2022-09-30T18:46:04.693Z,96613.06
2022-09-30T18:48:36.388Z,96616.06
2022-09-30T18:51:05.058Z,96614.41
2022-09-30T18:53:34.755Z,96616.97
2022-09-30T18:56:04.551Z,96622.88
2022-09-30T18:58:32.968Z,96619.69
2022-09-30T19:01:05.823Z,96626.44
2022-09-30T19:03:37.868Z,96620.91
2022-09-30T19:06:09.425Z,96622.19
2022-09-30T19:08:37.812Z,96617.84
2022-09-30T19:11:13.004Z,96614.66
2022-09-30T19:13:43.122Z,96623.31
2022-09-30T19:16:12.681Z,96615.44
2022-09-30T19:18:42.845Z,96619.63
2022-09-30T19:21:14.641Z,96614.84
2022-09-30T19:23:43.620Z,96617.56
2022-09-30T19:26:15.469Z,96618.69
2022-09-30T19:28:45.430Z,96609.22
2022-09-30T19:31:17.238Z,96611.28
2022-09-30T19:33:56.035Z,96607.31
2022-09-30T19:36:27.021Z,96610.38
2022-09-30T19:39:08.314Z,96597.97
2022-09-30T19:41:39.404Z,96597.59
2022-09-30T19:44:07.788Z,96595.56
2022-09-30T19:46:36.131Z,96607.03
2022-09-30T19:49:05.759Z,96592.50
2022-09-30T19:51:34.490Z,96590.63
2022-09-30T19:54:07.125Z,96590.56
2022-09-30T19:56:37.822Z,96584.72
2022-09-30T19:59:06.209Z,96584.03
2022-09-30T20:01:35.612Z,96590.03
2022-09-30T20:04:05.893Z,96596.69
2022-09-30T20:06:36.319Z,96598.66
2022-09-30T20:09:08.433Z,96598.00
2022-09-30T20:11:39.856Z,96598.03
2022-09-30T20:14:27.570Z,96589.72
2022-09-30T20:16:56.798Z,96588.94
2022-09-30T20:19:26.415Z,96597.28
2022-09-30T20:21:55.089Z,96598.41
2022-09-30T20:24:24.938Z,96602.25
2022-09-30T20:26:53.587Z,96606.28
2022-09-30T20:29:21.898Z,96602.72
2022-09-30T20:31:51.315Z,96612.97
2022-09-30T20:34:20.222Z,96613.31
2022-09-30T20:36:49.944Z,96614.78
2022-09-30T20:39:18.258Z,96616.22
2022-09-30T20:41:48.068Z,96620.84
2022-09-30T20:44:20.766Z,96620.38
2022-09-30T20:46:49.038Z,96619.59
2022-09-30T20:49:17.353Z,96621.81
2022-09-30T20:51:45.977Z,96622.97
2022-09-30T20:54:15.673Z,96623.44
2022-09-30T20:57:06.383Z,96629.38
2022-09-30T20:59:32.280Z,96620.38
2022-09-30T21:02:00.994Z,96625.03
2022-09-30T21:04:29.591Z,96624.38
2022-09-30T21:06:58.784Z,96612.53
2022-09-30T21:09:28.455Z,96616.84
2022-09-30T21:11:56.732Z,96617.97
2022-09-30T21:14:25.907Z,96618.44
2022-09-30T21:16:54.499Z,96619.06
2022-09-30T21:19:22.870Z,96614.91
2022-09-30T21:21:51.150Z,96611.97
2022-09-30T21:24:19.748Z,96605.41
2022-09-30T21:26:49.710Z,96605.22
2022-09-30T21:29:18.196Z,96618.00
2022-09-30T21:31:46.582Z,96614.13
2022-09-30T21:34:15.744Z,96614.38
2022-09-30T21:36:44.217Z,96619.41
2022-09-30T21:39:13.273Z,96610.06
2022-09-30T21:41:42.453Z,96610.03
2022-09-30T21:44:12.120Z,96607.44
2022-09-30T21:46:44.690Z,96604.22
2022-09-30T21:49:18.716Z,96599.41
2022-09-30T21:51:47.287Z,96601.31
2022-09-30T21:54:16.100Z,96613.50
2022-09-30T21:56:45.001Z,96600.38
2022-09-30T21:59:14.651Z,96599.28
2022-09-30T22:01:43.025Z,96602.31
2022-09-30T22:04:11.742Z,96611.50
2022-09-30T22:06:40.036Z,96614.22
2022-09-30T22:09:08.460Z,96610.94
2022-09-30T22:11:37.141Z,96621.63
2022-09-30T22:14:05.847Z,96625.53
2022-09-30T22:16:36.211Z,96627.38
2022-09-30T22:19:08.067Z,96632.34
2022-09-30T22:21:38.682Z,96636.06
2022-09-30T22:24:09.166Z,96633.72
2022-09-30T22:26:37.903Z,96653.66
2022-09-30T22:29:11.467Z,96658.22
2022-09-30T22:31:41.845Z,96655.09
2022-09-30T22:34:33.279Z,96660.28
2022-09-30T22:37:19.310Z,96661.50
2022-09-30T22:39:47.542Z,96671.19
2022-09-30T22:42:15.966Z,96674.84
2022-09-30T22:44:44.276Z,96678.47
2022-09-30T22:47:14.579Z,96686.91
2022-09-30T22:49:42.952Z,96679.88
2022-09-30T22:52:11.247Z,96680.25
2022-09-30T22:54:39.483Z,96677.13
2022-09-30T22:57:09.144Z,96683.31
2022-09-30T22:59:37.557Z,96682.59
2022-09-30T23:02:06.701Z,96675.97
2022-09-30T23:04:36.372Z,96685.78
2022-09-30T23:07:08.191Z,96689.97
2022-09-30T23:09:36.494Z,96694.78
2022-09-30T23:12:05.245Z,96698.03
2022-09-30T23:14:33.553Z,96698.56
2022-09-30T23:17:01.879Z,96704.06
2022-09-30T23:19:30.126Z,96711.47
2022-09-30T23:21:59.714Z,96711.03
2022-09-30T23:24:31.258Z,96720.03
2022-09-30T23:27:00.243Z,96715.72
2022-09-30T23:29:28.832Z,96721.16
2022-09-30T23:32:39.519Z,96718.63
2022-09-30T23:35:09.120Z,96710.63
2022-09-30T23:37:38.819Z,96721.03
2022-09-30T23:40:08.667Z,96709.66
2022-09-30T23:42:36.898Z,96713.47
2022-09-30T23:45:05.725Z,96705.16
2022-09-30T23:47:34.434Z,96706.25
2022-09-30T23:50:02.951Z,96705.72
2022-09-30T23:52:31.275Z,96712.72
2022-09-30T23:55:00.860Z,96704.78
2022-09-30T23:57:29.434Z,96711.91
2022-09-30T23:59:58.019Z,96704.59
